BEL6ZA EBBR-EDDH
Flight info
| Callsign | BEL6ZA |
|---|---|
| Flight time | 0h 57m |
| Altitude | 33000 |
| Route | NIK DCT NEPTU DCT TENLI DCT RIBSO RIBSO7A |
| Aircraft | A319/M-SDE3FGHIRWY/LB1 |
Departure
| Time | 2026-05-07 19:27 |
|---|---|
| Airport | Brussels Airport (EBBR) |
Arrival
| Time | 2026-05-07 20:24 |
|---|---|
| Airport | Hamburg Helmut Schmidt Airport (EDDH) |
| Time | Latitude | Longitude | Altitude | Speed | Heading |
|---|---|---|---|---|---|
| 2026-05-07 18:39 | 50.90394 | 4.48993 | 121 ft | 0 kts | 335° |
| 2026-05-07 19:14 | 50.90381 | 4.49002 | 122 ft | 2 kts | 335° |
| 2026-05-07 19:14 | 50.90366 | 4.49013 | 119 ft | 2 kts | 335° |
| 2026-05-07 19:15 | 50.90352 | 4.49024 | 121 ft | 2 kts | 337° |
| 2026-05-07 19:15 | 50.90336 | 4.49031 | 119 ft | 2 kts | 15° |
| 2026-05-07 19:15 | 50.90321 | 4.49021 | 121 ft | 2 kts | 33° |
| 2026-05-07 19:15 | 50.90309 | 4.49004 | 123 ft | 2 kts | 66° |
| 2026-05-07 19:16 | 50.90305 | 4.48990 | 122 ft | 0 kts | 65° |
| 2026-05-07 19:16 | 50.90305 | 4.48989 | 122 ft | 0 kts | 66° |
| 2026-05-07 19:19 | 50.90305 | 4.48990 | 122 ft | 1 kts | 65° |
| 2026-05-07 19:19 | 50.90323 | 4.49043 | 121 ft | 8 kts | 58° |
| 2026-05-07 19:20 | 50.90347 | 4.49128 | 122 ft | 9 kts | 67° |
| 2026-05-07 19:20 | 50.90373 | 4.49217 | 121 ft | 9 kts | 65° |
| 2026-05-07 19:20 | 50.90400 | 4.49316 | 121 ft | 10 kts | 68° |
| 2026-05-07 19:20 | 50.90431 | 4.49426 | 120 ft | 12 kts | 63° |
| 2026-05-07 19:21 | 50.90511 | 4.49498 | 124 ft | 15 kts | 13° |
| 2026-05-07 19:21 | 50.90613 | 4.49539 | 122 ft | 15 kts | 14° |
| 2026-05-07 19:21 | 50.90697 | 4.49575 | 123 ft | 5 kts | 15° |
| 2026-05-07 19:21 | 50.90700 | 4.49576 | 124 ft | 0 kts | 15° |
| 2026-05-07 19:22 | 50.90708 | 4.49580 | 124 ft | 3 kts | 15° |
| 2026-05-07 19:22 | 50.90746 | 4.49594 | 121 ft | 8 kts | 16° |
| 2026-05-07 19:23 | 50.90822 | 4.49628 | 122 ft | 13 kts | 15° |
| 2026-05-07 19:23 | 50.90906 | 4.49661 | 123 ft | 6 kts | 13° |
| 2026-05-07 19:23 | 50.90934 | 4.49669 | 123 ft | 1 kts | 6° |
| 2026-05-07 19:23 | 50.90941 | 4.49670 | 123 ft | 4 kts | 5° |
| 2026-05-07 19:24 | 50.90952 | 4.49668 | 121 ft | 0 kts | 352° |
| 2026-05-07 19:26 | 50.90966 | 4.49656 | 119 ft | 12 kts | 324° |
| 2026-05-07 19:26 | 50.91001 | 4.49489 | 118 ft | 15 kts | 303° |
| 2026-05-07 19:26 | 50.90997 | 4.49402 | 118 ft | 4 kts | 249° |
| 2026-05-07 19:26 | 50.90994 | 4.49390 | 119 ft | 3 kts | 249° |
| 2026-05-07 19:27 | 50.90919 | 4.49114 | 120 ft | 64 kts | 245° |
| 2026-05-07 19:27 | 50.90627 | 4.48112 | 121 ft | 134 kts | 245° |
| 2026-05-07 19:27 | 50.90183 | 4.46572 | 449 ft | 158 kts | 246° |
| 2026-05-07 19:27 | 50.89795 | 4.44942 | 1136 ft | 160 kts | 262° |
| 2026-05-07 19:28 | 50.90099 | 4.43275 | 1760 ft | 163 kts | 308° |
| 2026-05-07 19:28 | 50.91022 | 4.42140 | 2237 ft | 180 kts | 333° |
| 2026-05-07 19:28 | 50.92183 | 4.41114 | 2630 ft | 203 kts | 332° |
| 2026-05-07 19:28 | 50.93474 | 4.39948 | 3047 ft | 224 kts | 331° |
| 2026-05-07 19:29 | 50.94968 | 4.38578 | 3525 ft | 251 kts | 331° |
| 2026-05-07 19:29 | 50.96519 | 4.37141 | 4303 ft | 264 kts | 330° |
| 2026-05-07 19:29 | 50.98117 | 4.35654 | 5296 ft | 268 kts | 330° |
| 2026-05-07 19:29 | 50.99731 | 4.34151 | 6301 ft | 272 kts | 329° |
| 2026-05-07 19:30 | 51.01397 | 4.32597 | 6847 ft | 278 kts | 329° |
| 2026-05-07 19:30 | 51.03040 | 4.31061 | 7111 ft | 280 kts | 329° |
| 2026-05-07 19:30 | 51.04719 | 4.29483 | 8073 ft | 280 kts | 328° |
| 2026-05-07 19:30 | 51.06404 | 4.27894 | 9051 ft | 283 kts | 328° |
| 2026-05-07 19:31 | 51.08134 | 4.26262 | 10023 ft | 287 kts | 328° |
| 2026-05-07 19:31 | 51.09909 | 4.24589 | 10475 ft | 308 kts | 328° |
| 2026-05-07 19:31 | 51.11803 | 4.22811 | 11038 ft | 322 kts | 329° |
| 2026-05-07 19:31 | 51.13167 | 4.21840 | 11531 ft | 327 kts | 341° |
| 2026-05-07 19:32 | 51.15464 | 4.21281 | 12335 ft | 334 kts | 0° |
| 2026-05-07 19:32 | 51.18482 | 4.22389 | 13391 ft | 343 kts | 25° |
| 2026-05-07 19:32 | 51.20459 | 4.24543 | 13918 ft | 348 kts | 43° |
| 2026-05-07 19:32 | 51.22194 | 4.27235 | 14051 ft | 348 kts | 45° |
| 2026-05-07 19:33 | 51.23907 | 4.29966 | 14083 ft | 348 kts | 45° |
| 2026-05-07 19:33 | 51.25609 | 4.32704 | 14087 ft | 347 kts | 45° |
| 2026-05-07 19:33 | 51.27307 | 4.35442 | 14086 ft | 347 kts | 45° |
| 2026-05-07 19:33 | 51.28459 | 4.37298 | 14405 ft | 350 kts | 45° |
| 2026-05-07 19:34 | 51.30185 | 4.40067 | 15184 ft | 352 kts | 45° |
| 2026-05-07 19:34 | 51.31930 | 4.42852 | 15926 ft | 356 kts | 44° |
| 2026-05-07 19:34 | 51.33687 | 4.45651 | 16640 ft | 359 kts | 44° |
| 2026-05-07 19:34 | 51.35469 | 4.48490 | 17342 ft | 363 kts | 44° |
| 2026-05-07 19:35 | 51.37266 | 4.51358 | 18045 ft | 367 kts | 44° |
| 2026-05-07 19:35 | 51.39084 | 4.54261 | 18686 ft | 371 kts | 44° |
| 2026-05-07 19:35 | 51.40918 | 4.57194 | 19282 ft | 375 kts | 44° |
| 2026-05-07 19:35 | 51.42772 | 4.60164 | 19879 ft | 379 kts | 44° |
| 2026-05-07 19:36 | 51.44642 | 4.63165 | 20478 ft | 383 kts | 44° |
| 2026-05-07 19:36 | 51.46531 | 4.66199 | 21073 ft | 386 kts | 44° |
| 2026-05-07 19:36 | 51.48439 | 4.69269 | 21678 ft | 390 kts | 44° |
| 2026-05-07 19:36 | 51.50357 | 4.72363 | 22280 ft | 394 kts | 44° |
| 2026-05-07 19:37 | 51.52297 | 4.75496 | 22870 ft | 397 kts | 44° |
| 2026-05-07 19:37 | 51.54257 | 4.78665 | 23452 ft | 401 kts | 44° |
| 2026-05-07 19:37 | 51.56228 | 4.81858 | 23969 ft | 405 kts | 44° |
| 2026-05-07 19:37 | 51.58223 | 4.85087 | 24465 ft | 408 kts | 44° |
| 2026-05-07 19:38 | 51.60230 | 4.88334 | 24952 ft | 411 kts | 44° |
| 2026-05-07 19:38 | 51.62251 | 4.91604 | 25435 ft | 414 kts | 44° |
| 2026-05-07 19:38 | 51.64288 | 4.94908 | 25905 ft | 417 kts | 44° |
| 2026-05-07 19:38 | 51.66298 | 4.98177 | 26368 ft | 420 kts | 44° |
| 2026-05-07 19:39 | 51.68391 | 5.01589 | 26828 ft | 423 kts | 44° |
| 2026-05-07 19:39 | 51.70466 | 5.04976 | 27285 ft | 426 kts | 45° |
| 2026-05-07 19:39 | 51.72549 | 5.08384 | 27738 ft | 428 kts | 45° |
| 2026-05-07 19:39 | 51.74619 | 5.11775 | 28174 ft | 431 kts | 45° |
| 2026-05-07 19:40 | 51.76729 | 5.15234 | 28625 ft | 434 kts | 45° |
| 2026-05-07 19:40 | 51.78850 | 5.18718 | 29050 ft | 437 kts | 45° |
| 2026-05-07 19:40 | 51.80988 | 5.22240 | 29478 ft | 440 kts | 45° |
| 2026-05-07 19:40 | 51.83137 | 5.25781 | 29898 ft | 443 kts | 45° |
| 2026-05-07 19:41 | 51.85298 | 5.29343 | 30287 ft | 445 kts | 45° |
| 2026-05-07 19:41 | 51.87473 | 5.32932 | 30642 ft | 448 kts | 45° |
| 2026-05-07 19:41 | 51.89636 | 5.36557 | 30980 ft | 451 kts | 48° |
| 2026-05-07 19:41 | 51.91557 | 5.40601 | 31319 ft | 453 kts | 57° |
| 2026-05-07 19:42 | 51.93261 | 5.44914 | 31671 ft | 455 kts | 57° |
| 2026-05-07 19:42 | 51.94983 | 5.49268 | 32012 ft | 457 kts | 57° |
| 2026-05-07 19:42 | 51.96689 | 5.53567 | 32461 ft | 456 kts | 57° |
| 2026-05-07 19:42 | 51.98406 | 5.57878 | 32918 ft | 455 kts | 57° |
| 2026-05-07 19:43 | 52.00118 | 5.62187 | 33068 ft | 453 kts | 57° |
| 2026-05-07 19:43 | 52.01798 | 5.66425 | 33104 ft | 438 kts | 57° |
| 2026-05-07 19:43 | 52.03412 | 5.70510 | 33088 ft | 425 kts | 57° |
| 2026-05-07 19:43 | 52.04994 | 5.74529 | 33081 ft | 420 kts | 57° |
| 2026-05-07 19:44 | 52.08117 | 5.82493 | 33079 ft | 417 kts | 57° |
| 2026-05-07 19:44 | 52.11234 | 5.90460 | 33083 ft | 417 kts | 58° |
| 2026-05-07 19:45 | 52.14341 | 5.98431 | 33090 ft | 416 kts | 58° |
| 2026-05-07 19:45 | 52.17437 | 6.06379 | 33077 ft | 416 kts | 58° |
| 2026-05-07 19:46 | 52.20508 | 6.14283 | 33077 ft | 415 kts | 58° |
| 2026-05-07 19:46 | 52.23585 | 6.22241 | 33080 ft | 415 kts | 58° |
| 2026-05-07 19:47 | 52.27143 | 6.29645 | 33080 ft | 415 kts | 48° |
| 2026-05-07 19:47 | 52.30951 | 6.36719 | 33083 ft | 415 kts | 49° |
| 2026-05-07 19:48 | 52.34698 | 6.43720 | 33081 ft | 415 kts | 49° |
| 2026-05-07 19:48 | 52.38489 | 6.50818 | 33093 ft | 414 kts | 49° |
| 2026-05-07 19:49 | 52.42276 | 6.57921 | 33099 ft | 414 kts | 49° |
| 2026-05-07 19:49 | 52.46055 | 6.65036 | 33097 ft | 414 kts | 49° |
| 2026-05-07 19:50 | 52.49826 | 6.72165 | 33097 ft | 413 kts | 49° |
| 2026-05-07 19:50 | 52.53593 | 6.79298 | 33091 ft | 413 kts | 49° |
| 2026-05-07 19:51 | 52.57346 | 6.86433 | 33102 ft | 413 kts | 49° |
| 2026-05-07 19:51 | 52.61094 | 6.93578 | 33103 ft | 412 kts | 49° |
| 2026-05-07 19:52 | 52.64842 | 7.00712 | 33102 ft | 412 kts | 49° |
| 2026-05-07 19:52 | 52.68576 | 7.07862 | 33095 ft | 411 kts | 50° |
| 2026-05-07 19:53 | 52.72304 | 7.15031 | 33097 ft | 412 kts | 50° |
| 2026-05-07 19:53 | 52.76026 | 7.22200 | 33102 ft | 412 kts | 50° |
| 2026-05-07 19:54 | 52.79741 | 7.29387 | 33120 ft | 411 kts | 50° |
| 2026-05-07 19:54 | 52.83452 | 7.36588 | 33116 ft | 411 kts | 50° |
| 2026-05-07 19:55 | 52.87130 | 7.43727 | 33122 ft | 410 kts | 50° |
| 2026-05-07 19:55 | 52.90827 | 7.50932 | 33118 ft | 410 kts | 50° |
| 2026-05-07 19:56 | 52.94515 | 7.58143 | 33117 ft | 410 kts | 50° |
| 2026-05-07 19:56 | 52.98199 | 7.65353 | 33109 ft | 410 kts | 50° |
| 2026-05-07 19:57 | 53.01886 | 7.72588 | 33117 ft | 410 kts | 50° |
| 2026-05-07 19:57 | 53.03745 | 7.76247 | 32900 ft | 419 kts | 50° |
| 2026-05-07 19:57 | 53.05649 | 7.80006 | 31967 ft | 428 kts | 50° |
| 2026-05-07 19:58 | 53.07548 | 7.83765 | 31529 ft | 422 kts | 50° |
| 2026-05-07 19:58 | 53.09436 | 7.87508 | 31008 ft | 419 kts | 50° |
| 2026-05-07 19:58 | 53.11292 | 7.91196 | 30472 ft | 416 kts | 50° |
| 2026-05-07 19:58 | 53.13146 | 7.94877 | 29932 ft | 414 kts | 50° |
| 2026-05-07 19:59 | 53.14987 | 7.98537 | 29411 ft | 409 kts | 50° |
| 2026-05-07 19:59 | 53.16804 | 8.02152 | 28919 ft | 405 kts | 50° |
| 2026-05-07 19:59 | 53.18599 | 8.05733 | 28429 ft | 401 kts | 50° |
| 2026-05-07 19:59 | 53.20378 | 8.09285 | 27960 ft | 397 kts | 50° |
| 2026-05-07 20:00 | 53.22139 | 8.12806 | 27512 ft | 393 kts | 50° |
| 2026-05-07 20:00 | 53.23885 | 8.16304 | 27049 ft | 391 kts | 50° |
| 2026-05-07 20:00 | 53.25621 | 8.19778 | 26608 ft | 388 kts | 50° |
| 2026-05-07 20:00 | 53.27344 | 8.23227 | 26166 ft | 385 kts | 50° |
| 2026-05-07 20:01 | 53.29054 | 8.26653 | 25730 ft | 383 kts | 50° |
| 2026-05-07 20:01 | 53.30751 | 8.30067 | 25291 ft | 380 kts | 50° |
| 2026-05-07 20:01 | 53.32429 | 8.33454 | 24855 ft | 378 kts | 50° |
| 2026-05-07 20:01 | 53.34102 | 8.36835 | 24402 ft | 376 kts | 50° |
| 2026-05-07 20:02 | 53.35764 | 8.40194 | 23965 ft | 373 kts | 50° |
| 2026-05-07 20:02 | 53.37415 | 8.43533 | 23467 ft | 372 kts | 50° |
| 2026-05-07 20:02 | 53.39059 | 8.46864 | 22994 ft | 369 kts | 50° |
| 2026-05-07 20:02 | 53.40683 | 8.50164 | 22541 ft | 365 kts | 50° |
| 2026-05-07 20:03 | 53.42292 | 8.53440 | 22080 ft | 362 kts | 50° |
| 2026-05-07 20:03 | 53.43888 | 8.56689 | 21632 ft | 360 kts | 50° |
| 2026-05-07 20:03 | 53.45471 | 8.59914 | 21184 ft | 357 kts | 50° |
| 2026-05-07 20:03 | 53.47045 | 8.63128 | 20736 ft | 355 kts | 50° |
| 2026-05-07 20:04 | 53.48606 | 8.66326 | 20293 ft | 353 kts | 50° |
| 2026-05-07 20:04 | 53.50157 | 8.69503 | 19853 ft | 351 kts | 50° |
| 2026-05-07 20:04 | 53.51704 | 8.72673 | 19413 ft | 350 kts | 50° |
| 2026-05-07 20:04 | 53.53243 | 8.75830 | 18979 ft | 348 kts | 50° |
| 2026-05-07 20:05 | 53.54774 | 8.78974 | 18546 ft | 347 kts | 50° |
| 2026-05-07 20:05 | 53.56298 | 8.82102 | 18078 ft | 346 kts | 50° |
| 2026-05-07 20:05 | 53.57813 | 8.85216 | 17717 ft | 341 kts | 50° |
| 2026-05-07 20:05 | 53.59284 | 8.88243 | 17587 ft | 330 kts | 50° |
| 2026-05-07 20:06 | 53.60713 | 8.91191 | 17431 ft | 317 kts | 51° |
| 2026-05-07 20:06 | 53.62064 | 8.93982 | 17292 ft | 299 kts | 50° |
| 2026-05-07 20:06 | 53.63349 | 8.96639 | 17002 ft | 288 kts | 50° |
| 2026-05-07 20:06 | 53.64604 | 8.99235 | 16546 ft | 284 kts | 50° |
| 2026-05-07 20:07 | 53.65845 | 9.01807 | 16084 ft | 281 kts | 50° |
| 2026-05-07 20:07 | 53.67072 | 9.04357 | 15599 ft | 279 kts | 50° |
| 2026-05-07 20:07 | 53.68295 | 9.06897 | 15126 ft | 278 kts | 50° |
| 2026-05-07 20:07 | 53.69507 | 9.09417 | 14679 ft | 275 kts | 50° |
| 2026-05-07 20:08 | 53.70709 | 9.11920 | 14204 ft | 274 kts | 50° |
| 2026-05-07 20:08 | 53.71905 | 9.14411 | 13751 ft | 273 kts | 50° |
| 2026-05-07 20:08 | 53.73095 | 9.16890 | 13373 ft | 271 kts | 51° |
| 2026-05-07 20:08 | 53.74277 | 9.19361 | 13037 ft | 270 kts | 51° |
| 2026-05-07 20:09 | 53.75453 | 9.21823 | 12702 ft | 269 kts | 51° |
| 2026-05-07 20:09 | 53.76628 | 9.24280 | 12357 ft | 269 kts | 51° |
| 2026-05-07 20:09 | 53.77806 | 9.26741 | 12011 ft | 269 kts | 51° |
| 2026-05-07 20:10 | 53.79609 | 9.32157 | 11366 ft | 267 kts | 78° |
| 2026-05-07 20:10 | 53.79760 | 9.35240 | 11159 ft | 261 kts | 94° |
| 2026-05-07 20:10 | 53.79392 | 9.38239 | 10826 ft | 260 kts | 111° |
| 2026-05-07 20:10 | 53.78542 | 9.40909 | 10577 ft | 256 kts | 125° |
| 2026-05-07 20:11 | 53.77546 | 9.43389 | 10372 ft | 254 kts | 125° |
| 2026-05-07 20:11 | 53.76311 | 9.45463 | 10217 ft | 252 kts | 147° |
| 2026-05-07 20:11 | 53.74687 | 9.46552 | 10093 ft | 253 kts | 170° |
| 2026-05-07 20:11 | 53.72905 | 9.46450 | 9593 ft | 261 kts | 196° |
| 2026-05-07 20:12 | 53.71319 | 9.45105 | 9452 ft | 253 kts | 215° |
| 2026-05-07 20:12 | 53.69771 | 9.43740 | 9389 ft | 253 kts | 192° |
| 2026-05-07 20:12 | 53.68044 | 9.43832 | 9298 ft | 250 kts | 161° |
| 2026-05-07 20:12 | 53.66408 | 9.44826 | 9126 ft | 250 kts | 162° |
| 2026-05-07 20:13 | 53.64724 | 9.45544 | 8971 ft | 250 kts | 167° |
| 2026-05-07 20:13 | 53.63025 | 9.46133 | 8795 ft | 249 kts | 167° |
| 2026-05-07 20:13 | 53.61323 | 9.46702 | 8637 ft | 249 kts | 168° |
| 2026-05-07 20:13 | 53.59625 | 9.47290 | 8465 ft | 249 kts | 167° |
| 2026-05-07 20:14 | 53.57937 | 9.47904 | 8297 ft | 248 kts | 166° |
| 2026-05-07 20:14 | 53.56256 | 9.48537 | 8133 ft | 247 kts | 166° |
| 2026-05-07 20:14 | 53.54579 | 9.49178 | 7959 ft | 247 kts | 166° |
| 2026-05-07 20:14 | 53.52892 | 9.49723 | 7750 ft | 247 kts | 177° |
| 2026-05-07 20:15 | 53.51226 | 9.49157 | 7440 ft | 246 kts | 201° |
| 2026-05-07 20:15 | 53.49659 | 9.48025 | 7212 ft | 242 kts | 204° |
| 2026-05-07 20:15 | 53.48152 | 9.46868 | 7082 ft | 234 kts | 204° |
| 2026-05-07 20:15 | 53.46703 | 9.45744 | 6929 ft | 227 kts | 204° |
| 2026-05-07 20:16 | 53.45228 | 9.44893 | 6668 ft | 223 kts | 182° |
| 2026-05-07 20:16 | 53.43749 | 9.45388 | 6370 ft | 217 kts | 151° |
| 2026-05-07 20:16 | 53.42528 | 9.46834 | 6066 ft | 214 kts | 132° |
| 2026-05-07 20:16 | 53.41670 | 9.48820 | 5800 ft | 209 kts | 114° |
| 2026-05-07 20:17 | 53.41237 | 9.51117 | 5522 ft | 206 kts | 96° |
| 2026-05-07 20:17 | 53.41252 | 9.53500 | 5256 ft | 204 kts | 79° |
| 2026-05-07 20:17 | 53.41697 | 9.55743 | 4980 ft | 203 kts | 63° |
| 2026-05-07 20:17 | 53.42514 | 9.57672 | 4693 ft | 203 kts | 51° |
| 2026-05-07 20:18 | 53.43426 | 9.59478 | 4399 ft | 203 kts | 51° |
| 2026-05-07 20:18 | 53.44335 | 9.61287 | 4114 ft | 202 kts | 51° |
| 2026-05-07 20:18 | 53.45234 | 9.63078 | 4003 ft | 201 kts | 51° |
| 2026-05-07 20:18 | 53.45832 | 9.64269 | 4005 ft | 202 kts | 51° |
| 2026-05-07 20:19 | 53.46734 | 9.66070 | 4010 ft | 202 kts | 51° |
| 2026-05-07 20:19 | 53.47642 | 9.67881 | 4009 ft | 202 kts | 51° |
| 2026-05-07 20:19 | 53.48539 | 9.69673 | 4003 ft | 195 kts | 52° |
| 2026-05-07 20:19 | 53.49390 | 9.71373 | 3907 ft | 187 kts | 52° |
| 2026-05-07 20:20 | 53.50221 | 9.73036 | 3685 ft | 185 kts | 52° |
| 2026-05-07 20:20 | 53.51044 | 9.74685 | 3455 ft | 184 kts | 52° |
| 2026-05-07 20:20 | 53.51868 | 9.76337 | 3206 ft | 184 kts | 52° |
| 2026-05-07 20:20 | 53.52693 | 9.77990 | 2953 ft | 185 kts | 52° |
| 2026-05-07 20:21 | 53.53520 | 9.79649 | 2701 ft | 185 kts | 52° |
| 2026-05-07 20:21 | 53.54338 | 9.81291 | 2464 ft | 181 kts | 52° |
| 2026-05-07 20:21 | 53.55128 | 9.82877 | 2199 ft | 173 kts | 52° |
| 2026-05-07 20:21 | 53.55905 | 9.84441 | 1974 ft | 181 kts | 52° |
| 2026-05-07 20:22 | 53.56694 | 9.86027 | 1721 ft | 171 kts | 52° |
| 2026-05-07 20:22 | 53.57411 | 9.87466 | 1500 ft | 150 kts | 52° |
| 2026-05-07 20:22 | 53.58029 | 9.88711 | 1303 ft | 136 kts | 52° |
| 2026-05-07 20:22 | 53.58623 | 9.89909 | 1120 ft | 130 kts | 52° |
| 2026-05-07 20:23 | 53.59190 | 9.91052 | 944 ft | 125 kts | 52° |
| 2026-05-07 20:23 | 53.59744 | 9.92170 | 770 ft | 125 kts | 52° |
| 2026-05-07 20:23 | 53.60299 | 9.93291 | 605 ft | 125 kts | 50° |
| 2026-05-07 20:23 | 53.60861 | 9.94420 | 442 ft | 125 kts | 49° |
| 2026-05-07 20:24 | 53.61428 | 9.95558 | 233 ft | 129 kts | 51° |
| 2026-05-07 20:24 | 53.61980 | 9.96679 | 72 ft | 125 kts | 47° |
| 2026-05-07 20:24 | 53.62461 | 9.97663 | 40 ft | 74 kts | 51° |
| 2026-05-07 20:24 | 53.62685 | 9.98117 | 42 ft | 37 kts | 50° |
| 2026-05-07 20:25 | 53.62739 | 9.98363 | 43 ft | 11 kts | 139° |
| 2026-05-07 20:25 | 53.62703 | 9.98412 | 46 ft | 7 kts | 141° |
| 2026-05-07 20:25 | 53.62674 | 9.98513 | 47 ft | 11 kts | 70° |
| 2026-05-07 20:25 | 53.62723 | 9.98618 | 47 ft | 12 kts | 50° |
| 2026-05-07 20:26 | 53.62776 | 9.98727 | 47 ft | 12 kts | 51° |
| 2026-05-07 20:26 | 53.62835 | 9.98843 | 47 ft | 16 kts | 49° |
| 2026-05-07 20:26 | 53.62912 | 9.99002 | 47 ft | 18 kts | 50° |
| 2026-05-07 20:26 | 53.62993 | 9.99166 | 47 ft | 19 kts | 51° |
| 2026-05-07 20:27 | 53.63074 | 9.99340 | 47 ft | 19 kts | 53° |
| 2026-05-07 20:27 | 53.63153 | 9.99530 | 45 ft | 20 kts | 53° |
| 2026-05-07 20:27 | 53.63217 | 9.99662 | 48 ft | 7 kts | 51° |
| 2026-05-07 20:27 | 53.63226 | 9.99687 | 48 ft | 9 kts | 69° |
| 2026-05-07 20:28 | 53.63149 | 9.99824 | 48 ft | 20 kts | 154° |
| 2026-05-07 20:28 | 53.63021 | 9.99935 | 48 ft | 21 kts | 152° |
| 2026-05-07 20:28 | 53.62885 | 10.00042 | 48 ft | 22 kts | 161° |
| 2026-05-07 20:28 | 53.62755 | 10.00152 | 48 ft | 12 kts | 140° |
| 2026-05-07 20:29 | 53.62768 | 10.00257 | 48 ft | 6 kts | 62° |
| 2026-05-07 20:29 | 53.62773 | 10.00273 | 47 ft | 0 kts | 62° |